createdAt,value
2023-06-11T00:01:07.382Z,99.90
2023-06-11T00:03:42.468Z,99.90
2023-06-11T00:06:23.119Z,99.90
2023-06-11T00:08:57.908Z,99.90
2023-06-11T00:11:32.179Z,99.90
2023-06-11T00:14:06.363Z,99.90
2023-06-11T00:16:42.540Z,99.90
2023-06-11T00:19:18.527Z,99.90
2023-06-11T00:21:57.819Z,99.90
2023-06-11T00:24:32.547Z,99.90
2023-06-11T00:27:07.601Z,99.90
2023-06-11T00:29:42.420Z,99.90
2023-06-11T00:32:17.122Z,99.90
2023-06-11T00:34:51.457Z,99.90
2023-06-11T00:37:32.229Z,99.90
2023-06-11T00:40:07.783Z,99.90
2023-06-11T00:42:42.414Z,99.90
2023-06-11T00:45:18.262Z,99.90
2023-06-11T00:47:53.707Z,99.90
2023-06-11T00:50:30.121Z,99.90
2023-06-11T00:53:06.848Z,99.90
2023-06-11T00:55:41.064Z,99.90
2023-06-11T00:58:19.180Z,99.90
2023-06-11T01:00:57.855Z,99.90
2023-06-11T01:03:34.923Z,99.90
2023-06-11T01:06:19.642Z,99.90
2023-06-11T01:08:59.405Z,99.90
2023-06-11T01:11:40.955Z,99.90
2023-06-11T01:14:18.179Z,99.90
2023-06-11T01:16:59.341Z,99.90
2023-06-11T01:19:46.505Z,99.90
2023-06-11T01:22:23.947Z,99.90
2023-06-11T01:25:18.485Z,99.90
2023-06-11T01:28:07.346Z,99.90
2023-06-11T01:30:38.413Z,99.90
2023-06-11T01:33:15.376Z,99.90
2023-06-11T01:35:59.512Z,99.90
2023-06-11T01:38:43.256Z,99.90
2023-06-11T01:41:24.662Z,99.90
2023-06-11T01:44:01.933Z,99.90
2023-06-11T01:46:36.756Z,99.90
2023-06-11T01:49:11.550Z,99.90
2023-06-11T01:51:46.484Z,99.90
2023-06-11T01:54:21.753Z,99.90
2023-06-11T01:56:56.482Z,99.90
2023-06-11T01:59:33.818Z,99.90
2023-06-11T02:02:08.518Z,99.90
2023-06-11T02:04:43.507Z,99.90
2023-06-11T02:07:18.233Z,99.90
2023-06-11T02:09:53.164Z,99.90
2023-06-11T02:12:28.209Z,99.90
2023-06-11T02:15:05.879Z,99.90
2023-06-11T02:17:40.135Z,99.90
2023-06-11T02:20:16.818Z,99.90
2023-06-11T02:22:51.131Z,99.90
2023-06-11T02:25:25.229Z,99.90
2023-06-11T02:28:02.183Z,99.90
2023-06-11T02:30:38.262Z,99.90
2023-06-11T02:33:16.802Z,99.90
2023-06-11T02:35:51.245Z,99.90
2023-06-11T02:38:26.171Z,99.90
2023-06-11T02:41:00.339Z,99.90
2023-06-11T02:43:35.308Z,99.90
2023-06-11T02:46:10.137Z,99.90
2023-06-11T02:48:47.180Z,99.90
2023-06-11T02:51:21.213Z,99.90
2023-06-11T02:53:55.319Z,99.90
2023-06-11T02:56:31.180Z,99.90
2023-06-11T02:59:05.611Z,99.90
2023-06-11T03:01:40.949Z,99.90
2023-06-11T03:04:19.794Z,99.90
2023-06-11T03:06:55.175Z,99.90
2023-06-11T03:09:29.698Z,99.90
2023-06-11T03:12:04.524Z,99.90
2023-06-11T03:14:38.267Z,99.90
2023-06-11T03:17:13.661Z,99.90
2023-06-11T03:19:50.255Z,99.90
2023-06-11T03:22:24.260Z,99.90
2023-06-11T03:24:59.433Z,99.90
2023-06-11T03:27:39.256Z,99.90
2023-06-11T03:30:15.148Z,99.90
2023-06-11T03:32:50.314Z,99.90
2023-06-11T03:35:28.009Z,99.90
2023-06-11T03:38:03.546Z,99.90
2023-06-11T03:40:37.508Z,99.90
2023-06-11T03:43:13.685Z,99.90
2023-06-11T03:45:49.730Z,99.90
2023-06-11T03:48:25.368Z,99.90
2023-06-11T03:51:03.517Z,99.90
2023-06-11T03:53:38.511Z,99.90
2023-06-11T03:56:13.938Z,99.90
2023-06-11T03:58:48.755Z,99.90
2023-06-11T04:01:22.139Z,99.90
2023-06-11T04:03:57.206Z,99.90
2023-06-11T04:06:40.169Z,99.90
2023-06-11T04:09:15.761Z,99.90
2023-06-11T04:11:51.728Z,99.90
2023-06-11T04:14:26.381Z,99.90
2023-06-11T04:17:01.213Z,99.90
2023-06-11T04:19:36.237Z,99.90
2023-06-11T04:22:13.952Z,99.90
2023-06-11T04:24:49.436Z,99.90
2023-06-11T04:27:25.441Z,99.90
2023-06-11T04:30:00.467Z,99.90
2023-06-11T04:32:38.424Z,99.90
2023-06-11T04:35:16.160Z,99.90
2023-06-11T04:37:57.229Z,99.90
2023-06-11T04:40:35.568Z,99.90
2023-06-11T04:43:11.850Z,99.90
2023-06-11T04:45:51.123Z,99.90
2023-06-11T04:48:26.520Z,99.90
2023-06-11T04:51:02.186Z,99.90
2023-06-11T04:53:46.899Z,99.90
2023-06-11T04:56:24.899Z,99.90
2023-06-11T04:58:59.726Z,99.90
2023-06-11T05:01:39.005Z,99.90
2023-06-11T05:04:15.400Z,99.90
2023-06-11T05:06:50.737Z,99.90
2023-06-11T05:09:32.681Z,99.90
2023-06-11T05:12:10.464Z,99.90
2023-06-11T05:14:46.342Z,99.90
2023-06-11T05:17:21.313Z,99.90
2023-06-11T05:19:57.639Z,99.90
2023-06-11T05:22:32.311Z,99.90
2023-06-11T05:25:16.522Z,99.90
2023-06-11T05:27:51.626Z,99.90
2023-06-11T05:30:27.083Z,99.90
2023-06-11T05:33:02.927Z,99.90
2023-06-11T05:35:38.295Z,99.90
2023-06-11T05:38:13.293Z,99.90
2023-06-11T05:40:52.585Z,99.90
2023-06-11T05:43:28.180Z,99.90
2023-06-11T05:46:02.687Z,99.90
2023-06-11T05:48:38.269Z,99.90
2023-06-11T05:51:13.277Z,99.90
2023-06-11T05:53:49.498Z,99.90
2023-06-11T05:56:26.967Z,99.90
2023-06-11T05:59:03.230Z,99.90
2023-06-11T06:01:38.465Z,99.90
2023-06-11T06:04:13.491Z,99.90
2023-06-11T06:06:48.926Z,99.90
2023-06-11T06:09:23.298Z,99.90
2023-06-11T06:12:02.093Z,99.90
2023-06-11T06:14:37.572Z,99.90
2023-06-11T06:17:12.953Z,99.90
2023-06-11T06:19:49.315Z,99.90
2023-06-11T06:22:24.338Z,99.90
2023-06-11T06:25:01.611Z,99.90
2023-06-11T06:27:40.878Z,99.90
2023-06-11T06:30:17.385Z,99.90
2023-06-11T06:32:52.289Z,99.90
2023-06-11T06:35:26.128Z,99.90
2023-06-11T06:38:01.253Z,99.90
2023-06-11T06:40:36.333Z,99.90
2023-06-11T06:43:14.346Z,99.90
2023-06-11T06:45:52.923Z,99.90
2023-06-11T06:48:32.851Z,99.90
2023-06-11T06:51:07.486Z,99.90
2023-06-11T06:53:43.211Z,99.90
2023-06-11T06:56:19.956Z,99.90
2023-06-11T06:58:57.055Z,99.90
2023-06-11T07:01:32.042Z,99.90
2023-06-11T07:04:07.690Z,99.90
2023-06-11T07:06:43.630Z,99.90
2023-06-11T07:09:19.260Z,99.90
2023-06-11T07:11:56.870Z,99.90
2023-06-11T07:14:35.327Z,99.90
2023-06-11T07:17:11.365Z,99.90
2023-06-11T07:19:46.772Z,99.90
2023-06-11T07:22:20.974Z,99.90
2023-06-11T07:24:58.213Z,99.90
2023-06-11T07:27:33.548Z,99.90
2023-06-11T07:30:14.401Z,99.90
2023-06-11T07:32:49.757Z,99.90
2023-06-11T07:35:25.975Z,99.90
2023-06-11T07:38:01.628Z,99.90
2023-06-11T07:40:37.326Z,99.90
2023-06-11T07:43:12.210Z,99.90
2023-06-11T07:45:49.308Z,99.90
2023-06-11T07:48:27.104Z,99.90
2023-06-11T07:51:03.370Z,99.90
2023-06-11T07:53:38.736Z,99.90
2023-06-11T07:56:14.868Z,99.90
2023-06-11T07:58:49.461Z,99.90
2023-06-11T08:01:27.466Z,99.90
2023-06-11T08:04:02.669Z,99.90
2023-06-11T08:06:37.476Z,99.90
2023-06-11T08:09:13.075Z,99.90
2023-06-11T08:11:47.654Z,99.90
2023-06-11T08:14:22.793Z,99.90
2023-06-11T08:17:00.479Z,99.90
2023-06-11T08:19:35.862Z,99.90
2023-06-11T08:22:10.978Z,99.90
2023-06-11T08:24:44.528Z,99.90
2023-06-11T08:27:19.522Z,99.90
2023-06-11T08:29:54.838Z,99.90
2023-06-11T08:32:32.744Z,99.90
2023-06-11T08:35:08.977Z,99.90
2023-06-11T08:37:43.392Z,99.90
2023-06-11T08:40:19.073Z,99.90
2023-06-11T08:42:53.881Z,99.90
2023-06-11T08:45:28.974Z,99.90
2023-06-11T08:48:07.215Z,99.90
2023-06-11T08:50:41.663Z,99.70
2023-06-11T08:53:17.295Z,99.00
2023-06-11T08:55:52.013Z,99.90
2023-06-11T08:58:27.235Z,98.50
2023-06-11T09:01:02.173Z,98.20
2023-06-11T09:03:39.508Z,97.70
2023-06-11T09:06:15.211Z,98.00
2023-06-11T09:09:00.762Z,98.60
2023-06-11T09:11:36.514Z,98.20
2023-06-11T09:14:11.816Z,96.10
2023-06-11T09:16:47.140Z,94.80
2023-06-11T09:19:25.594Z,94.50
2023-06-11T09:22:04.112Z,94.60
2023-06-11T09:24:38.468Z,95.00
2023-06-11T09:27:13.719Z,94.90
2023-06-11T09:29:48.579Z,92.20
2023-06-11T09:32:32.525Z,91.70
2023-06-11T09:35:13.230Z,92.30
2023-06-11T09:37:48.766Z,92.80
2023-06-11T09:40:25.218Z,93.40
2023-06-11T09:43:00.555Z,91.40
2023-06-11T09:45:35.788Z,92.90
2023-06-11T09:48:11.128Z,93.30
2023-06-11T09:50:46.676Z,93.00
2023-06-11T09:53:23.028Z,93.00
2023-06-11T09:56:10.465Z,92.70
2023-06-11T09:58:46.746Z,91.50
2023-06-11T10:01:21.802Z,91.70
2023-06-11T10:03:57.401Z,90.40
2023-06-11T10:06:37.410Z,91.50
2023-06-11T10:09:14.569Z,91.90
2023-06-11T10:11:51.917Z,91.50
2023-06-11T10:14:27.619Z,91.40
2023-06-11T10:17:05.052Z,91.40
2023-06-11T10:19:40.489Z,90.50
2023-06-11T10:22:17.594Z,91.30
2023-06-11T10:25:02.299Z,90.30
2023-06-11T10:27:40.711Z,88.90
2023-06-11T10:30:25.969Z,89.30
2023-06-11T10:32:59.786Z,88.90
2023-06-11T10:35:37.942Z,90.00
2023-06-11T10:38:16.649Z,89.40
2023-06-11T10:40:52.090Z,87.40
2023-06-11T10:43:26.193Z,87.30
2023-06-11T10:46:05.461Z,86.60
2023-06-11T10:48:41.036Z,88.20
2023-06-11T10:51:17.202Z,88.00
2023-06-11T10:54:04.162Z,86.30
2023-06-11T10:56:40.844Z,86.00
2023-06-11T10:59:15.860Z,86.50
2023-06-11T11:01:50.706Z,87.40
2023-06-11T11:04:26.670Z,85.70
2023-06-11T11:07:10.058Z,85.60
2023-06-11T11:09:47.626Z,86.00
2023-06-11T11:12:23.187Z,82.30
2023-06-11T11:14:56.694Z,80.10
2023-06-11T11:17:29.794Z,78.80
2023-06-11T11:20:05.368Z,82.40
2023-06-11T11:22:40.321Z,80.40
2023-06-11T11:25:20.285Z,81.40
2023-06-11T11:27:54.595Z,81.50
2023-06-11T11:30:30.321Z,81.70
2023-06-11T11:33:04.917Z,82.70
2023-06-11T11:35:49.306Z,81.80
2023-06-11T11:38:23.495Z,80.50
2023-06-11T11:41:02.404Z,81.30
2023-06-11T11:43:41.151Z,82.00
2023-06-11T11:46:20.341Z,80.00
2023-06-11T11:48:58.042Z,80.10
2023-06-11T11:51:32.356Z,81.70
2023-06-11T11:54:06.908Z,80.00
2023-06-11T11:56:45.199Z,80.00
2023-06-11T11:59:22.712Z,80.40
2023-06-11T12:02:02.423Z,81.80
2023-06-11T12:04:40.491Z,80.80
2023-06-11T12:07:16.821Z,78.40
2023-06-11T12:09:51.545Z,79.10
2023-06-11T12:12:27.527Z,79.80
2023-06-11T12:15:04.049Z,78.80
2023-06-11T12:17:39.096Z,79.10
2023-06-11T12:20:14.404Z,79.50
2023-06-11T12:22:48.875Z,79.10
2023-06-11T12:25:23.714Z,80.00
2023-06-11T12:28:01.191Z,79.80
2023-06-11T12:30:36.323Z,78.00
2023-06-11T12:33:10.536Z,79.30
2023-06-11T12:35:44.763Z,78.40
2023-06-11T12:38:20.051Z,78.10
2023-06-11T12:40:55.212Z,75.80
2023-06-11T12:43:32.666Z,77.50
2023-06-11T12:46:08.931Z,78.40
2023-06-11T12:48:43.499Z,79.10
2023-06-11T12:51:21.201Z,78.20
2023-06-11T12:53:54.497Z,75.40
2023-06-11T12:56:30.250Z,76.30
2023-06-11T12:59:07.527Z,75.20
2023-06-11T13:01:43.072Z,76.00
2023-06-11T13:04:17.683Z,76.90
2023-06-11T13:06:52.951Z,76.10
2023-06-11T13:09:28.484Z,75.50
2023-06-11T13:12:03.011Z,76.60
2023-06-11T13:14:41.028Z,77.90
2023-06-11T13:17:16.000Z,75.40
2023-06-11T13:19:51.217Z,76.60
2023-06-11T13:22:26.417Z,76.40
2023-06-11T13:25:02.262Z,75.60
2023-06-11T13:27:36.820Z,75.70
2023-06-11T13:30:11.357Z,74.40
2023-06-11T13:32:49.592Z,74.80
2023-06-11T13:35:24.766Z,73.80
2023-06-11T13:37:59.926Z,73.70
2023-06-11T13:40:34.479Z,74.70
2023-06-11T13:43:09.597Z,74.40
2023-06-11T13:45:46.035Z,74.50
2023-06-11T13:48:24.045Z,72.70
2023-06-11T13:51:00.378Z,72.00
2023-06-11T13:53:34.714Z,72.70
2023-06-11T13:56:10.207Z,73.30
2023-06-11T13:58:42.565Z,73.20
2023-06-11T14:01:17.631Z,71.80
2023-06-11T14:03:55.684Z,72.60
2023-06-11T14:06:33.411Z,71.80
2023-06-11T14:09:09.555Z,72.70
2023-06-11T14:11:44.774Z,72.10
2023-06-11T14:14:23.506Z,72.10
2023-06-11T14:17:02.015Z,72.10
2023-06-11T14:19:39.092Z,72.90
2023-06-11T14:22:14.984Z,72.70
2023-06-11T14:24:49.397Z,72.10
2023-06-11T14:27:25.664Z,72.50
2023-06-11T14:30:02.219Z,72.50
2023-06-11T14:32:38.020Z,72.80
2023-06-11T14:35:15.579Z,72.10
2023-06-11T14:37:50.569Z,71.80
2023-06-11T14:40:25.694Z,72.20
2023-06-11T14:43:01.356Z,72.70
2023-06-11T14:45:38.042Z,72.60
2023-06-11T14:48:13.740Z,71.50
2023-06-11T14:50:52.186Z,72.70
2023-06-11T14:53:26.643Z,71.70
2023-06-11T14:56:01.840Z,71.20
2023-06-11T14:58:36.805Z,70.60
2023-06-11T15:01:12.294Z,71.90
2023-06-11T15:03:44.430Z,71.80
2023-06-11T15:06:22.135Z,70.70
2023-06-11T15:08:56.885Z,71.10
2023-06-11T15:11:31.993Z,70.20
2023-06-11T15:14:07.827Z,70.50
2023-06-11T15:16:41.947Z,69.60
2023-06-11T15:19:16.719Z,69.40
2023-06-11T15:21:55.029Z,69.10
2023-06-11T15:24:29.566Z,68.30
2023-06-11T15:27:04.561Z,68.40
2023-06-11T15:29:39.561Z,67.90
2023-06-11T15:32:14.446Z,67.90
2023-06-11T15:34:48.978Z,67.00
2023-06-11T15:37:29.404Z,66.30
2023-06-11T15:40:04.387Z,64.50
2023-06-11T15:42:40.351Z,66.50
2023-06-11T15:45:16.108Z,65.40
2023-06-11T15:47:51.593Z,63.80
2023-06-11T15:50:26.274Z,64.30
2023-06-11T15:53:04.539Z,64.90
2023-06-11T15:55:41.624Z,64.40
2023-06-11T15:58:17.062Z,65.10
2023-06-11T16:00:51.968Z,65.00
2023-06-11T16:03:26.935Z,64.40
2023-06-11T16:06:02.032Z,63.50
2023-06-11T16:08:39.765Z,63.90
2023-06-11T16:11:14.982Z,63.70
2023-06-11T16:13:50.453Z,63.90
2023-06-11T16:16:22.098Z,63.20
2023-06-11T16:18:56.618Z,63.40
2023-06-11T16:21:31.668Z,62.90
2023-06-11T16:24:10.426Z,62.20
2023-06-11T16:26:47.335Z,62.10
2023-06-11T16:29:22.069Z,63.10
2023-06-11T16:31:57.173Z,62.50
2023-06-11T16:34:31.588Z,62.70
2023-06-11T16:37:07.869Z,63.00
2023-06-11T16:39:47.110Z,63.90
2023-06-11T16:42:21.586Z,63.60
2023-06-11T16:44:56.607Z,63.00
2023-06-11T16:47:31.989Z,63.10
2023-06-11T16:50:07.017Z,63.50
2023-06-11T16:52:42.091Z,63.90
2023-06-11T16:55:21.688Z,63.80
2023-06-11T16:57:58.163Z,63.20
2023-06-11T17:00:33.020Z,63.60
2023-06-11T17:03:05.531Z,63.80
2023-06-11T17:05:41.413Z,63.20
2023-06-11T17:08:18.560Z,63.10
2023-06-11T17:10:57.542Z,64.00
2023-06-11T17:13:33.591Z,62.80
2023-06-11T17:16:10.248Z,63.00
2023-06-11T17:18:44.207Z,63.20
2023-06-11T17:21:19.287Z,63.10
2023-06-11T17:23:57.200Z,63.60
2023-06-11T17:26:34.855Z,63.20
2023-06-11T17:29:10.180Z,63.60
2023-06-11T17:31:46.554Z,63.40
2023-06-11T17:34:22.450Z,63.70
2023-06-11T17:36:58.718Z,64.30
2023-06-11T17:39:34.679Z,63.90
2023-06-11T17:42:15.547Z,64.10
2023-06-11T17:44:52.544Z,64.30
2023-06-11T17:47:27.335Z,64.80
2023-06-11T17:50:02.277Z,64.90
2023-06-11T17:52:35.221Z,65.80
2023-06-11T17:55:14.626Z,65.50
2023-06-11T17:57:49.068Z,65.20
2023-06-11T18:00:27.726Z,66.30
2023-06-11T18:03:03.541Z,65.90
2023-06-11T18:05:38.816Z,65.90
2023-06-11T18:08:13.666Z,66.00
2023-06-11T18:10:47.107Z,66.40
2023-06-11T18:13:23.111Z,66.90
2023-06-11T18:16:00.663Z,67.00
2023-06-11T18:18:36.038Z,67.20
2023-06-11T18:21:11.284Z,67.50
2023-06-11T18:23:45.825Z,67.50
2023-06-11T18:26:20.721Z,67.80
2023-06-11T18:28:55.653Z,67.90
2023-06-11T18:31:34.007Z,67.90
2023-06-11T18:34:09.405Z,68.20
2023-06-11T18:36:44.112Z,68.10
2023-06-11T18:39:19.300Z,68.40
2023-06-11T18:41:53.936Z,68.30
2023-06-11T18:44:29.465Z,68.00
2023-06-11T18:47:08.198Z,68.10
2023-06-11T18:49:42.798Z,68.20
2023-06-11T18:52:18.716Z,68.30
2023-06-11T18:54:54.688Z,68.70
2023-06-11T18:57:29.724Z,68.60
2023-06-11T19:00:06.360Z,68.90
2023-06-11T19:02:42.640Z,69.10
2023-06-11T19:05:18.284Z,69.10
2023-06-11T19:07:52.568Z,69.00
2023-06-11T19:10:26.890Z,69.20
2023-06-11T19:13:02.917Z,69.20
2023-06-11T19:15:37.575Z,69.40
2023-06-11T19:18:15.178Z,69.30
2023-06-11T19:20:49.568Z,69.40
2023-06-11T19:23:24.002Z,69.70
2023-06-11T19:25:58.892Z,69.60
2023-06-11T19:28:33.524Z,69.80
2023-06-11T19:31:07.621Z,69.90
2023-06-11T19:33:46.700Z,70.10
2023-06-11T19:36:21.607Z,70.40
2023-06-11T19:38:56.566Z,70.40
2023-06-11T19:41:31.872Z,70.60
2023-06-11T19:44:06.860Z,70.70
2023-06-11T19:46:41.628Z,70.90
2023-06-11T19:49:19.279Z,71.00
2023-06-11T19:51:53.626Z,71.10
2023-06-11T19:54:41.863Z,71.30
2023-06-11T19:57:23.798Z,71.50
2023-06-11T20:00:00.531Z,71.80
2023-06-11T20:02:35.687Z,71.90
2023-06-11T20:05:14.083Z,71.90
2023-06-11T20:07:48.680Z,72.30
2023-06-11T20:10:24.842Z,72.30
2023-06-11T20:12:59.675Z,72.50
2023-06-11T20:15:34.557Z,72.60
2023-06-11T20:18:08.767Z,72.70
2023-06-11T20:20:47.139Z,73.30
2023-06-11T20:23:21.572Z,74.10
2023-06-11T20:25:55.501Z,73.60
2023-06-11T20:28:29.599Z,74.20
2023-06-11T20:31:05.422Z,74.10
2023-06-11T20:33:39.562Z,74.20
2023-06-11T20:36:17.927Z,74.60
2023-06-11T20:38:52.571Z,74.60
2023-06-11T20:41:27.745Z,74.80
2023-06-11T20:44:02.561Z,74.90
2023-06-11T20:46:36.899Z,75.20
2023-06-11T20:49:11.836Z,75.50
2023-06-11T20:51:49.188Z,75.40
2023-06-11T20:54:23.770Z,76.00
2023-06-11T20:56:58.555Z,76.00
2023-06-11T20:59:33.531Z,76.20
2023-06-11T21:02:08.885Z,76.50
2023-06-11T21:04:44.181Z,76.70
2023-06-11T21:07:21.572Z,77.10
2023-06-11T21:09:56.651Z,77.40
2023-06-11T21:12:31.991Z,78.10
2023-06-11T21:15:07.224Z,78.10
2023-06-11T21:17:41.635Z,78.10
2023-06-11T21:20:16.618Z,78.40
2023-06-11T21:22:54.199Z,78.50
2023-06-11T21:25:28.534Z,78.70
2023-06-11T21:28:02.694Z,78.90
2023-06-11T21:30:38.293Z,79.20
2023-06-11T21:33:12.542Z,79.60
2023-06-11T21:35:51.190Z,80.10
2023-06-11T21:38:28.342Z,80.00
2023-06-11T21:41:00.570Z,80.30
2023-06-11T21:43:35.596Z,80.70
2023-06-11T21:46:10.495Z,81.20
2023-06-11T21:48:44.530Z,81.80
2023-06-11T21:51:18.627Z,82.20
2023-06-11T21:53:56.270Z,82.20
2023-06-11T21:56:31.032Z,82.40
2023-06-11T21:59:05.491Z,82.90
2023-06-11T22:01:39.609Z,83.70
2023-06-11T22:04:17.066Z,84.30
2023-06-11T22:06:54.186Z,84.60
2023-06-11T22:09:31.220Z,84.80
2023-06-11T22:12:05.828Z,85.30
2023-06-11T22:14:40.898Z,85.60
2023-06-11T22:17:15.629Z,86.50
2023-06-11T22:19:50.614Z,86.00
2023-06-11T22:22:24.547Z,86.10
2023-06-11T22:25:02.042Z,86.40
2023-06-11T22:27:36.562Z,87.30
2023-06-11T22:30:12.053Z,87.30
2023-06-11T22:32:45.324Z,87.20
2023-06-11T22:35:19.559Z,88.20
2023-06-11T22:37:53.532Z,87.90
2023-06-11T22:40:28.380Z,88.00
2023-06-11T22:43:02.680Z,89.50
2023-06-11T22:45:37.599Z,89.40
2023-06-11T22:48:11.615Z,89.90
2023-06-11T22:50:48.807Z,90.20
2023-06-11T22:53:23.539Z,90.50
2023-06-11T22:56:02.771Z,90.60
2023-06-11T22:58:37.546Z,91.10
2023-06-11T23:01:11.604Z,91.10
2023-06-11T23:03:46.925Z,91.50
2023-06-11T23:06:21.686Z,92.10
2023-06-11T23:08:56.702Z,92.40
2023-06-11T23:11:34.293Z,92.60
2023-06-11T23:14:08.545Z,93.10
2023-06-11T23:16:43.802Z,93.80
2023-06-11T23:19:18.825Z,94.60
2023-06-11T23:21:57.783Z,94.80
2023-06-11T23:24:32.821Z,95.80
2023-06-11T23:27:08.809Z,96.20
2023-06-11T23:29:45.006Z,96.90
2023-06-11T23:32:20.145Z,97.10
2023-06-11T23:34:55.706Z,97.70
2023-06-11T23:37:31.239Z,98.30
2023-06-11T23:40:05.873Z,98.90
2023-06-11T23:42:41.215Z,99.40
2023-06-11T23:45:15.744Z,99.90
2023-06-11T23:47:47.587Z,99.90
2023-06-11T23:50:22.735Z,99.90
2023-06-11T23:52:57.638Z,99.90
2023-06-11T23:55:31.506Z,99.90
2023-06-11T23:58:24.291Z,99.90
